createdAt,value
2019-02-04T00:00:34.155Z,5.76
2019-02-04T00:03:08.159Z,5.71
2019-02-04T00:05:39.451Z,5.72
2019-02-04T00:08:10.655Z,5.77
2019-02-04T00:10:41.763Z,5.76
2019-02-04T00:13:13.341Z,5.76
2019-02-04T00:15:44.462Z,5.77
2019-02-04T00:18:15.756Z,5.68
2019-02-04T00:20:47.641Z,5.69
2019-02-04T00:23:18.720Z,5.73
2019-02-04T00:25:50.044Z,5.71
2019-02-04T00:28:21.285Z,5.69
2019-02-04T00:30:52.755Z,5.71
2019-02-04T00:33:23.920Z,5.58
2019-02-04T00:35:55.617Z,5.55
2019-02-04T00:38:26.838Z,5.42
2019-02-04T00:40:58.135Z,5.51
2019-02-04T00:43:29.484Z,5.55
2019-02-04T00:46:00.549Z,5.63
2019-02-04T00:48:32.050Z,5.64
2019-02-04T00:51:03.342Z,5.55
2019-02-04T00:53:34.808Z,5.64
2019-02-04T00:56:07.558Z,5.66
2019-02-04T00:58:39.213Z,5.58
2019-02-04T01:01:10.771Z,5.47
2019-02-04T01:03:41.820Z,5.45
2019-02-04T01:06:12.873Z,5.50
2019-02-04T01:08:43.926Z,5.38
2019-02-04T01:11:15.254Z,5.42
2019-02-04T01:13:47.718Z,5.33
2019-02-04T01:16:18.669Z,5.46
2019-02-04T01:18:49.897Z,5.41
2019-02-04T01:21:20.861Z,5.59
2019-02-04T01:23:51.922Z,5.49
2019-02-04T01:26:23.150Z,5.48
2019-02-04T01:28:54.473Z,5.54
2019-02-04T01:31:26.744Z,5.54
2019-02-04T01:33:57.989Z,5.69
2019-02-04T01:36:28.955Z,5.63
2019-02-04T01:39:00.256Z,5.58
2019-02-04T01:41:33.336Z,5.41
2019-02-04T01:44:04.690Z,5.41
2019-02-04T01:46:36.143Z,5.39
2019-02-04T01:49:07.113Z,5.44
2019-02-04T01:51:38.477Z,5.51
2019-02-04T01:54:09.619Z,5.31
2019-02-04T01:56:40.651Z,5.35
2019-02-04T01:59:11.994Z,5.35
2019-02-04T02:01:43.125Z,5.48
2019-02-04T02:04:14.169Z,5.50
2019-02-04T02:06:45.202Z,5.51
2019-02-04T02:09:24.857Z,5.64
2019-02-04T02:11:56.215Z,5.64
2019-02-04T02:14:27.556Z,5.59
2019-02-04T02:16:58.523Z,5.62
2019-02-04T02:19:29.504Z,5.59
2019-02-04T02:22:00.551Z,5.48
2019-02-04T02:24:31.606Z,5.50
2019-02-04T02:27:03.068Z,5.41
2019-02-04T02:29:36.244Z,5.49
2019-02-04T02:32:07.220Z,5.46
2019-02-04T02:34:38.193Z,5.36
2019-02-04T02:37:09.486Z,5.47
2019-02-04T02:39:40.466Z,5.44
2019-02-04T02:42:11.435Z,5.55
2019-02-04T02:44:42.925Z,5.46
2019-02-04T02:53:05.944Z,5.40
2019-02-04T02:55:37.239Z,5.31
2019-02-04T02:58:08.392Z,5.37
2019-02-04T03:00:39.908Z,5.35
2019-02-04T03:03:12.238Z,5.32
2019-02-04T03:05:43.585Z,5.25
2019-02-04T03:08:15.521Z,5.33
2019-02-04T03:10:46.612Z,5.23
2019-02-04T03:13:17.626Z,5.19
2019-02-04T03:15:49.246Z,5.18
2019-02-04T03:18:20.328Z,5.16
2019-02-04T03:20:51.697Z,5.09
2019-02-04T03:23:22.704Z,5.00
2019-02-04T03:25:53.990Z,5.15
2019-02-04T03:28:25.003Z,5.08
2019-02-04T03:30:56.090Z,5.09
2019-02-04T03:33:29.194Z,5.11
2019-02-04T03:36:00.182Z,5.25
2019-02-04T03:38:31.790Z,5.19
2019-02-04T03:41:03.107Z,5.00
2019-02-04T03:43:34.111Z,5.12
2019-02-04T03:46:06.863Z,5.04
2019-02-04T03:48:37.969Z,5.04
2019-02-04T03:51:09.107Z,5.07
2019-02-04T03:53:41.949Z,4.89
2019-02-04T03:56:13.033Z,4.92
2019-02-04T03:58:44.147Z,4.86
2019-02-04T04:01:15.140Z,4.85
2019-02-04T04:03:46.210Z,4.83
2019-02-04T04:06:17.837Z,4.72
2019-02-04T04:08:52.012Z,4.57
2019-02-04T04:11:22.978Z,4.59
2019-02-04T04:13:53.981Z,4.70
2019-02-04T04:16:26.430Z,4.69
2019-02-04T04:18:57.516Z,4.58
2019-02-04T04:21:31.030Z,4.56
2019-02-04T04:24:02.410Z,4.64
2019-02-04T04:26:35.157Z,4.63
2019-02-04T04:29:06.391Z,4.59
2019-02-04T04:31:37.556Z,4.46
2019-02-04T04:34:09.080Z,4.45
2019-02-04T04:36:40.087Z,4.51
2019-02-04T04:39:11.259Z,4.55
2019-02-04T04:41:42.257Z,4.43
2019-02-04T04:44:13.282Z,4.41
2019-02-04T04:46:45.096Z,4.52
2019-02-04T04:49:16.100Z,4.50
2019-02-04T04:51:47.922Z,4.49
2019-02-04T04:54:19.010Z,4.42
2019-02-04T04:56:50.265Z,4.35
2019-02-04T04:59:23.126Z,4.43
2019-02-04T05:01:54.176Z,4.44
2019-02-04T05:04:25.468Z,4.40
2019-02-04T05:06:56.727Z,4.40
2019-02-04T05:09:27.989Z,4.36
2019-02-04T05:11:59.627Z,4.41
2019-02-04T05:14:30.781Z,4.37
2019-02-04T05:17:02.040Z,4.36
2019-02-04T05:19:35.747Z,4.31
2019-02-04T05:22:06.891Z,4.33
2019-02-04T05:24:38.007Z,4.25
2019-02-04T05:27:10.151Z,3.94
2019-02-04T05:29:41.503Z,3.93
2019-02-04T05:32:12.911Z,4.06
2019-02-04T05:34:44.363Z,4.11
2019-02-04T05:37:15.642Z,4.18
2019-02-04T05:39:48.770Z,4.07
2019-02-04T05:42:20.164Z,3.87
2019-02-04T05:44:52.896Z,4.06
2019-02-04T05:47:25.117Z,3.99
2019-02-04T05:49:57.967Z,4.00
2019-02-04T05:52:31.007Z,4.08
2019-02-04T05:55:02.315Z,3.98
2019-02-04T05:57:33.401Z,3.81
2019-02-04T06:00:06.912Z,3.94
2019-02-04T06:02:39.060Z,3.99
2019-02-04T06:05:11.645Z,3.88
2019-02-04T06:07:42.746Z,3.76
2019-02-04T06:10:14.456Z,3.92
2019-02-04T06:12:45.960Z,3.83
2019-02-04T06:15:17.722Z,3.79
2019-02-04T06:17:49.686Z,3.74
2019-02-04T06:20:21.922Z,3.84
2019-02-04T06:22:53.393Z,3.71
2019-02-04T06:25:24.771Z,3.73
2019-02-04T06:27:57.078Z,3.68
2019-02-04T06:30:28.773Z,3.50
2019-02-04T06:32:59.845Z,3.55
2019-02-04T06:35:31.542Z,3.53
2019-02-04T06:38:03.374Z,3.41
2019-02-04T06:40:35.240Z,3.62
2019-02-04T06:43:06.358Z,3.81
2019-02-04T06:45:37.817Z,3.72
2019-02-04T06:48:09.484Z,3.69
2019-02-04T06:50:40.882Z,3.62
2019-02-04T06:53:12.685Z,3.54
2019-02-04T06:55:44.005Z,3.53
2019-02-04T06:58:16.269Z,3.62
2019-02-04T07:00:49.488Z,3.68
2019-02-04T07:03:21.681Z,3.72
2019-02-04T07:05:52.999Z,3.60
2019-02-04T07:08:23.987Z,3.57
2019-02-04T07:10:56.102Z,3.60
2019-02-04T07:13:27.693Z,3.61
2019-02-04T07:15:59.616Z,3.64
2019-02-04T07:18:31.104Z,3.61
2019-02-04T07:21:03.939Z,3.67
2019-02-04T07:23:35.202Z,3.59
2019-02-04T07:26:06.367Z,3.59
2019-02-04T07:28:37.536Z,3.44
2019-02-04T07:31:08.621Z,3.35
2019-02-04T07:33:39.870Z,3.39
2019-02-04T07:36:11.024Z,3.31
2019-02-04T07:38:42.375Z,3.20
2019-02-04T07:41:14.618Z,3.48
2019-02-04T07:43:45.676Z,3.53
2019-02-04T07:46:16.958Z,3.49
2019-02-04T07:48:48.570Z,3.51
2019-02-04T07:51:20.141Z,3.63
2019-02-04T07:53:52.006Z,3.85
2019-02-04T07:56:23.176Z,3.70
2019-02-04T07:58:54.203Z,3.81
2019-02-04T08:01:25.285Z,3.98
2019-02-04T08:03:56.593Z,3.94
2019-02-04T08:06:27.903Z,3.99
2019-02-04T08:08:59.072Z,4.04
2019-02-04T08:11:30.129Z,4.30
2019-02-04T08:14:01.228Z,4.37
2019-02-04T08:16:33.245Z,4.55
2019-02-04T08:19:04.514Z,4.44
2019-02-04T08:21:35.523Z,4.78
2019-02-04T08:24:06.994Z,5.05
2019-02-04T08:26:40.523Z,4.95
2019-02-04T08:29:11.895Z,5.14
2019-02-04T08:31:43.358Z,5.36
2019-02-04T08:34:15.838Z,5.46
2019-02-04T08:36:46.858Z,5.42
2019-02-04T08:39:17.855Z,5.67
2019-02-04T08:41:49.680Z,5.81
2019-02-04T08:44:21.811Z,5.80
2019-02-04T08:46:52.790Z,5.73
2019-02-04T08:49:26.508Z,6.01
2019-02-04T08:51:59.840Z,6.06
2019-02-04T08:54:32.322Z,5.86
2019-02-04T08:57:04.004Z,6.10
2019-02-04T08:59:35.256Z,6.22
2019-02-04T09:02:06.378Z,6.25
2019-02-04T09:04:37.371Z,6.35
2019-02-04T09:07:09.114Z,6.47
2019-02-04T09:09:40.475Z,6.38
2019-02-04T09:12:12.058Z,6.63
2019-02-04T09:14:44.122Z,6.83
2019-02-04T09:17:15.551Z,6.83
2019-02-04T09:19:47.457Z,6.96
2019-02-04T09:22:18.591Z,7.01
2019-02-04T09:24:50.757Z,7.22
2019-02-04T09:27:22.128Z,7.23
2019-02-04T09:29:53.156Z,7.33
2019-02-04T09:32:26.742Z,7.39
2019-02-04T09:34:57.723Z,7.42
2019-02-04T09:37:29.058Z,7.50
2019-02-04T09:40:00.317Z,7.50
2019-02-04T09:42:32.035Z,7.63
2019-02-04T09:45:03.048Z,7.66
2019-02-04T09:47:35.706Z,7.66
2019-02-04T09:50:08.460Z,7.72
2019-02-04T09:52:39.725Z,7.73
2019-02-04T09:55:18.649Z,7.82
2019-02-04T09:57:49.953Z,7.75
2019-02-04T10:00:27.301Z,7.77
2019-02-04T10:02:59.976Z,7.91
2019-02-04T10:05:31.836Z,7.99
2019-02-04T10:08:05.012Z,8.05
2019-02-04T10:10:38.000Z,8.09
2019-02-04T10:13:10.011Z,8.17
2019-02-04T10:15:45.743Z,8.23
2019-02-04T10:18:19.440Z,8.23
2019-02-04T10:20:50.496Z,8.27
2019-02-04T10:23:21.561Z,8.33
2019-02-04T10:25:52.652Z,8.36
2019-02-04T10:28:24.061Z,8.46
2019-02-04T10:30:55.366Z,8.52
2019-02-04T10:33:26.682Z,8.53
2019-02-04T10:35:58.800Z,8.57
2019-02-04T10:38:29.805Z,8.59
2019-02-04T10:41:00.896Z,8.72
2019-02-04T10:43:32.055Z,8.79
2019-02-04T10:46:04.832Z,8.80
2019-02-04T10:48:37.458Z,8.84
2019-02-04T10:51:08.626Z,8.98
2019-02-04T10:53:39.733Z,8.91
2019-02-04T10:56:11.507Z,8.99
2019-02-04T10:58:43.504Z,8.90
2019-02-04T11:01:14.565Z,8.94
2019-02-04T11:03:45.850Z,9.01
2019-02-04T11:06:18.576Z,8.96
2019-02-04T11:08:50.181Z,8.87
2019-02-04T11:11:21.135Z,8.87
2019-02-04T11:13:52.664Z,8.82
2019-02-04T11:16:23.698Z,8.69
2019-02-04T11:18:55.649Z,8.82
2019-02-04T11:21:28.242Z,8.88
2019-02-04T11:24:00.486Z,8.92
2019-02-04T11:26:32.981Z,8.73
2019-02-04T11:29:04.822Z,8.84
2019-02-04T11:31:40.536Z,8.88
2019-02-04T11:34:13.188Z,8.97
2019-02-04T11:36:44.605Z,8.99
2019-02-04T11:39:17.112Z,8.98
2019-02-04T11:41:48.859Z,8.93
2019-02-04T11:44:21.277Z,8.91
2019-02-04T11:46:52.260Z,9.01
2019-02-04T11:49:24.712Z,8.89
2019-02-04T11:51:56.254Z,8.99
2019-02-04T11:54:30.291Z,9.04
2019-02-04T11:57:02.173Z,9.08
2019-02-04T11:59:33.194Z,9.13
2019-02-04T12:02:06.230Z,9.07
2019-02-04T12:04:37.205Z,9.27
2019-02-04T12:07:08.281Z,9.34
2019-02-04T12:09:40.719Z,9.42
2019-02-04T12:12:11.830Z,9.50
2019-02-04T12:14:42.814Z,9.52
2019-02-04T12:17:13.899Z,9.33
2019-02-04T12:19:45.124Z,9.26
2019-02-04T12:22:18.102Z,9.48
2019-02-04T12:24:50.655Z,9.52
2019-02-04T12:27:31.809Z,9.42
2019-02-04T12:29:56.328Z,9.34
2019-02-04T12:32:27.697Z,9.32
2019-02-04T12:34:59.028Z,9.38
2019-02-04T12:37:32.465Z,9.28
2019-02-04T12:40:03.659Z,9.25
2019-02-04T12:42:35.247Z,9.34
2019-02-04T12:45:09.057Z,9.27
2019-02-04T12:47:41.415Z,9.18
2019-02-04T12:50:13.587Z,9.18
2019-02-04T12:52:44.749Z,9.18
2019-02-04T12:55:18.894Z,9.18
2019-02-04T12:57:50.313Z,9.12
2019-02-04T13:00:24.482Z,9.11
2019-02-04T13:02:57.769Z,9.00
2019-02-04T13:05:40.319Z,9.13
2019-02-04T13:08:12.422Z,9.08
2019-02-04T13:10:45.082Z,9.03
2019-02-04T13:13:19.569Z,8.97
2019-02-04T13:15:51.027Z,8.96
2019-02-04T13:18:25.242Z,8.90
2019-02-04T13:21:01.320Z,8.90
2019-02-04T13:23:32.388Z,8.93
2019-02-04T13:26:04.118Z,8.96
2019-02-04T13:28:35.527Z,8.92
2019-02-04T13:31:07.990Z,8.91
2019-02-04T13:33:40.884Z,8.97
2019-02-04T13:36:13.011Z,8.87
2019-02-04T13:38:44.028Z,8.86
2019-02-04T13:41:15.293Z,8.74
2019-02-04T13:43:46.460Z,8.94
2019-02-04T13:46:19.128Z,8.94
2019-02-04T13:48:50.518Z,9.15
2019-02-04T13:51:21.622Z,9.05
2019-02-04T13:53:53.014Z,8.94
2019-02-04T13:56:24.526Z,9.01
2019-02-04T13:58:57.753Z,8.66
2019-02-04T14:01:30.964Z,8.34
2019-02-04T14:04:02.301Z,8.35
2019-02-04T14:06:33.823Z,8.21
2019-02-04T14:09:10.498Z,8.15
2019-02-04T14:11:41.983Z,7.82
2019-02-04T14:14:13.062Z,8.14
2019-02-04T14:16:44.432Z,8.21
2019-02-04T14:19:15.912Z,8.34
2019-02-04T14:21:47.670Z,8.48
2019-02-04T14:24:18.695Z,8.46
2019-02-04T14:26:50.791Z,8.55
2019-02-04T14:29:24.190Z,8.29
2019-02-04T14:31:55.775Z,8.17
2019-02-04T14:34:28.943Z,8.06
2019-02-04T14:37:00.182Z,8.29
2019-02-04T14:39:34.830Z,8.37
2019-02-04T14:42:10.094Z,8.30
2019-02-04T14:44:54.571Z,8.22
2019-02-04T14:47:49.770Z,8.22
2019-02-04T14:51:02.190Z,8.38
2019-02-04T14:54:17.538Z,8.38
2019-02-04T14:57:16.574Z,8.46
2019-02-04T15:00:44.048Z,8.49
2019-02-04T15:03:38.504Z,8.45
2019-02-04T15:07:01.504Z,8.30
2019-02-04T15:10:03.066Z,8.32
2019-02-04T15:13:43.740Z,8.32
2019-02-04T15:16:48.862Z,8.37
2019-02-04T15:20:07.223Z,8.35
2019-02-04T15:24:12.102Z,8.32
2019-02-04T15:27:26.672Z,8.15
2019-02-04T15:30:47.470Z,8.04
2019-02-04T15:34:06.822Z,8.01
2019-02-04T15:37:15.089Z,8.02
2019-02-04T15:40:20.238Z,7.98
2019-02-04T15:43:31.321Z,7.92
2019-02-04T15:46:36.912Z,7.89
2019-02-04T15:49:53.793Z,7.82
2019-02-04T15:52:27.182Z,7.76
2019-02-04T15:54:58.295Z,7.73
2019-02-04T15:57:32.970Z,7.75
2019-02-04T16:00:04.520Z,7.66
2019-02-04T16:02:37.478Z,7.47
2019-02-04T16:05:11.386Z,7.48
2019-02-04T16:07:42.864Z,7.50
2019-02-04T16:10:17.797Z,7.48
2019-02-04T16:12:48.816Z,7.38
2019-02-04T16:15:20.048Z,7.28
2019-02-04T16:17:52.471Z,7.32
2019-02-04T16:20:27.153Z,7.23
2019-02-04T16:23:00.679Z,7.17
2019-02-04T16:25:32.535Z,7.16
2019-02-04T16:28:03.554Z,7.12
2019-02-04T16:30:37.632Z,7.06
2019-02-04T16:33:10.157Z,7.06
2019-02-04T16:35:42.078Z,6.93
2019-02-04T16:38:13.536Z,6.96
2019-02-04T16:40:44.520Z,6.91
2019-02-04T16:43:15.916Z,6.96
2019-02-04T16:45:47.772Z,6.89
2019-02-04T16:48:20.415Z,6.92
2019-02-04T16:51:10.623Z,6.90
2019-02-04T16:53:27.157Z,6.88
2019-02-04T16:55:58.674Z,6.87
2019-02-04T16:58:30.019Z,6.84
2019-02-04T17:01:01.323Z,6.75
2019-02-04T17:03:32.442Z,6.75
2019-02-04T17:06:04.853Z,6.67
2019-02-04T17:08:36.366Z,6.62
2019-02-04T17:11:07.384Z,6.61
2019-02-04T17:13:38.523Z,6.64
2019-02-04T17:16:09.843Z,6.57
2019-02-04T17:18:41.833Z,6.54
2019-02-04T17:21:13.933Z,6.53
2019-02-04T17:23:45.192Z,6.50
2019-02-04T17:26:16.326Z,6.49
2019-02-04T17:28:47.427Z,6.45
2019-02-04T17:31:18.544Z,6.37
2019-02-04T17:33:51.750Z,6.33
2019-02-04T17:36:22.830Z,6.23
2019-02-04T17:38:54.053Z,6.24
2019-02-04T17:41:26.578Z,6.18
2019-02-04T17:43:59.814Z,6.16
2019-02-04T17:46:30.869Z,6.15
2019-02-04T17:49:02.483Z,6.16
2019-02-04T17:51:33.946Z,6.06
2019-02-04T17:54:05.638Z,6.15
2019-02-04T17:56:36.792Z,6.14
2019-02-04T17:59:08.175Z,6.04
2019-02-04T18:01:42.988Z,6.07
2019-02-04T18:04:12.670Z,6.04
2019-02-04T18:06:44.028Z,6.00
2019-02-04T18:09:15.409Z,6.02
2019-02-04T18:11:46.773Z,6.01
2019-02-04T18:14:18.417Z,5.91
2019-02-04T18:16:52.561Z,5.85
2019-02-04T18:19:24.156Z,5.90
2019-02-04T18:21:56.238Z,5.84
2019-02-04T18:24:28.063Z,5.95
2019-02-04T18:27:00.274Z,5.95
2019-02-04T18:29:31.321Z,5.87
2019-02-04T18:32:02.704Z,5.81
2019-02-04T18:34:35.586Z,5.79
2019-02-04T18:37:06.724Z,5.79
2019-02-04T18:39:38.231Z,5.79
2019-02-04T18:42:09.510Z,5.79
2019-02-04T18:44:42.004Z,5.72
2019-02-04T18:47:13.781Z,5.76
2019-02-04T18:49:46.327Z,5.70
2019-02-04T18:52:17.956Z,5.65
2019-02-04T18:54:52.271Z,5.70
2019-02-04T18:57:24.255Z,5.56
2019-02-04T18:59:56.592Z,5.61
2019-02-04T19:02:27.858Z,5.61
2019-02-04T19:05:21.429Z,5.59
2019-02-04T19:07:54.144Z,5.51
2019-02-04T19:10:32.461Z,5.58
2019-02-04T19:13:05.108Z,5.54
2019-02-04T19:15:36.544Z,5.53
2019-02-04T19:18:12.236Z,5.51
2019-02-04T19:20:45.236Z,5.48
2019-02-04T19:23:16.255Z,5.44
2019-02-04T19:25:47.770Z,5.55
2019-02-04T19:28:20.175Z,5.55
2019-02-04T19:31:17.553Z,5.50
2019-02-04T19:33:49.381Z,5.59
2019-02-04T19:36:22.974Z,5.58
2019-02-04T19:38:54.868Z,5.58
2019-02-04T19:41:27.436Z,5.49
2019-02-04T19:43:59.483Z,5.56
2019-02-04T19:46:32.110Z,5.62
2019-02-04T19:49:03.556Z,5.55
2019-02-04T19:51:35.143Z,5.55
2019-02-04T19:54:07.364Z,5.50
2019-02-04T19:56:38.456Z,5.45
2019-02-04T19:59:09.902Z,5.33
2019-02-04T20:01:41.873Z,5.40
2019-02-04T20:04:13.640Z,5.38
2019-02-04T20:06:45.071Z,5.49
2019-02-04T20:09:16.692Z,5.52
2019-02-04T20:11:48.406Z,5.40
2019-02-04T20:14:20.110Z,5.48
2019-02-04T20:16:51.242Z,5.49
2019-02-04T20:19:22.328Z,5.44
2019-02-04T20:21:53.661Z,5.49
2019-02-04T20:24:32.898Z,5.49
2019-02-04T20:27:00.030Z,5.46
2019-02-04T20:29:31.326Z,5.41
2019-02-04T20:32:02.398Z,5.40
2019-02-04T20:34:33.787Z,5.40
2019-02-04T20:37:08.226Z,5.41
2019-02-04T20:39:39.898Z,5.39
2019-02-04T20:42:11.035Z,5.49
2019-02-04T20:44:42.377Z,5.42
2019-02-04T20:47:13.525Z,5.42
2019-02-04T20:49:44.578Z,5.43
2019-02-04T20:52:18.261Z,5.44
2019-02-04T20:54:50.391Z,5.45
2019-02-04T20:57:22.959Z,5.54
2019-02-04T20:59:54.087Z,5.43
2019-02-04T21:02:27.739Z,5.44
2019-02-04T21:05:00.558Z,5.38
2019-02-04T21:07:32.517Z,5.39
2019-02-04T21:10:05.032Z,5.38
2019-02-04T21:12:36.920Z,5.34
2019-02-04T21:15:10.625Z,5.37
2019-02-04T21:17:42.308Z,5.30
2019-02-04T21:20:17.113Z,5.26
2019-02-04T21:22:48.252Z,5.31
2019-02-04T21:25:20.359Z,5.29
2019-02-04T21:27:52.090Z,5.30
2019-02-04T21:30:33.099Z,5.28
2019-02-04T21:33:04.446Z,5.37
2019-02-04T21:35:35.614Z,5.39
2019-02-04T21:38:07.254Z,5.41
2019-02-04T21:40:39.252Z,5.40
2019-02-04T21:43:10.400Z,5.41
2019-02-04T21:45:41.737Z,5.39
2019-02-04T21:48:12.896Z,5.42
2019-02-04T21:50:44.271Z,5.37
2019-02-04T21:53:15.350Z,5.42
2019-02-04T21:55:48.790Z,5.24
2019-02-04T21:58:21.380Z,5.50
2019-02-04T22:00:52.395Z,5.28
2019-02-04T22:03:23.759Z,5.15
2019-02-04T22:05:55.039Z,5.18
2019-02-04T22:08:27.272Z,5.33
2019-02-04T22:11:00.189Z,5.30
2019-02-04T22:13:31.171Z,5.23
2019-02-04T22:16:04.691Z,5.27
2019-02-04T22:18:36.201Z,5.13
2019-02-04T22:21:07.588Z,5.27
2019-02-04T22:23:38.586Z,5.19
2019-02-04T22:26:10.055Z,5.14
2019-02-04T22:28:42.806Z,5.17
2019-02-04T22:31:13.841Z,5.33
2019-02-04T22:33:44.816Z,5.39
2019-02-04T22:36:15.829Z,5.33
2019-02-04T22:38:47.137Z,5.15
2019-02-04T22:41:19.260Z,5.23
2019-02-04T22:43:50.450Z,5.17
2019-02-04T22:46:21.736Z,5.23
2019-02-04T22:48:53.901Z,5.15
2019-02-04T22:51:27.015Z,5.08
2019-02-04T22:54:00.915Z,5.08
2019-02-04T22:56:31.936Z,5.00
2019-02-04T22:59:03.193Z,4.92
2019-02-04T23:01:49.652Z,4.94
2019-02-04T23:04:22.137Z,5.07
2019-02-04T23:06:53.522Z,5.03
2019-02-04T23:09:25.322Z,4.96
2019-02-04T23:11:57.191Z,5.09
2019-02-04T23:14:29.891Z,4.96
2019-02-04T23:17:01.285Z,4.99
2019-02-04T23:19:32.348Z,5.00
2019-02-04T23:22:04.442Z,4.94
2019-02-04T23:24:37.132Z,5.01
2019-02-04T23:27:09.854Z,5.08
2019-02-04T23:29:41.378Z,5.03
2019-02-04T23:32:14.149Z,5.09
2019-02-04T23:34:45.461Z,5.09
2019-02-04T23:37:16.611Z,5.10
2019-02-04T23:39:48.225Z,5.07
2019-02-04T23:42:19.492Z,5.02
2019-02-04T23:44:51.815Z,4.95
2019-02-04T23:47:23.438Z,4.99
2019-02-04T23:49:55.145Z,4.97
2019-02-04T23:52:29.105Z,4.99
2019-02-04T23:55:00.827Z,5.12
2019-02-04T23:57:32.732Z,5.09
